San Gabriel, CA (91775)

10:05 PM PDT on September 01, 2014 (GMT -0700)
Rosemead Gardens | Change Station
CLOSE
Current Station
Personal Weather Station
Location: Rosemead, CA
Elevation: 341 ft
Nearby Weather Stations

Elev 341 ft 34.09 °N, 118.07 °W | Updated 10 minutes ago

Clear
Clear
70.9 °F
Feels Like 72 °F
N
0.9
Wind Variable Wind from SW
Gusts 4.9 mph

Today
High -- | Low -- °F
--% Chance of Precip.
Yesterday
High -- | Low -- °F
Precip. -- in
6:25 AM 7:18 PM
Waxing Crescent, 47% visible
Pressure 29.81 in
Visibility 9.0 miles
Clouds Clear
Heat Index 72 °F
Dew Point 63 °F
Humidity 77%
Rainfall 0.00 in
Snow Depth Not available.
UV 0 out of 12
Pollen 7.80 out of 12
Ozone Good
PM2.5 Moderate
Flu Activity Not available.
METAR KCQT 020447Z AUTO 00000KT 9SM CLR 22/18 A2982 RMK AO2 SLP094 T02220183

More Conditions Fewer Conditions

Pressure 29.81 in
Visibility 9.0 miles
Clouds Clear
Heat Index 72 °F
Dew Point 63 °F
Humidity 77%
Rainfall 0.00 in
Snow Depth Not available.
UV 0 out of 12
Pollen 7.80 out of 12
Ozone Good
PM2.5 Moderate
Flu Activity Not available.
METAR KCQT 020447Z AUTO 00000KT 9SM CLR 22/18 A2982 RMK AO2 SLP094 T02220183

More Conditions Fewer Conditions

10-Day Weather Forecast

Almanac

Astronomy

Sep. 01, 2014 Rise Set
Actual Time 6:25 AM PDT 7:18 PM PDT
Civil Twilight 6:00 AM PDT 7:43 PM PDT
Nautical Twilight 5:30 AM PDT 8:13 PM PDT
Astronomical Twilight 4:59 AM PDT 8:44 PM PDT
Moon 12:58 PM PDT (9/1) 11:41 PM PDT (9/1)
Length of Visible Light 13h 43m
Length of Day
12h 52m
Tomorrow will be 2m 2s shorter.
Waxing Crescent, 47% of the Moon is Illuminated
Sep 2
Waxing Crescent
Sep 2
First Quarter
Sep 8
Full
Sep 15
Last Quarter
Sep 24
New

Yesterday's Extremes

State Highs State Lows

Community

WunderPhotos

Upload Photos

1,749,575 photos uploaded!

WunderBlogs® & News

Nearby

Air Quality

  Air Quality AQ Index Pollutant
Yesterday Unhealthy for Sensitive Groups
OZONE
Yesterday Moderate
PM2.5
Current Moderate
PM2.5
Current Good
OZONE
Tuesday Good
OZONE
Tuesday Good
PM10
Tuesday Good
CO
Tuesday Good
NO2

Snow Depth

Station Depth Elevation
Leavitt Lake 0 in 9400 ft
Leavitt Meadows 0 in 7200 ft
Summit Meadow 0 in 9122 ft
Monitor Pass 0 in 8350 ft
Blue Lakes 0 in 8000 ft

Earthquake Activity

City Distance Mag. Time & Date
Malibu, California 63 miles 2.5 8:11 AM PDT
2014-08-30
Minimum magnitude displayed is 2.5.

Coastal Water Temperatures

Place Temperature
Santa Monica Pier 73.0 °F
Los Angeles, CA 71.1 °F
La Jolla, CA 71.1 °F

Nearby Weather Stations